Time;durP1;ratioP1;P1;durP2;ratioP2;P2;SDS_P1;SDS_P2;PMS_P1;PMS_P2;Temp;Humidity;BMP_temperature;BMP_pressure;BME280_temperature;BME280_humidity;BME280_pressure;Samples;Min_cycle;Max_cycle;Signal;HPM_P1;HPM_P2
2021/05/02 00:00:21;;;;;;;7.45;6.30;;;;;;;11.98;37.87;96809.09;5026918;28;20041;-77
2021/05/02 00:02:47;;;;;;;5.70;4.90;;;;;;;12.05;37.96;96811.47;5009987;28;20100;-77
2021/05/02 00:05:14;;;;;;;6.80;5.03;;;;;;;12.27;37.16;96811.13;5027728;28;20341;-77
2021/05/02 00:07:39;;;;;;;5.32;4.82;;;;;;;12.48;36.51;96812.69;5010353;28;20031;-77
2021/05/02 00:10:07;;;;;;;6.05;4.80;;;;;;;12.17;37.04;96809.34;5027496;28;20390;-77
2021/05/02 00:12:32;;;;;;;8.50;5.70;;;;;;;12.09;38.18;96809.88;5009098;28;20032;-77
2021/05/02 00:14:58;;;;;;;6.70;5.18;;;;;;;12.24;36.49;96804.63;5028582;28;20116;-77
2021/05/02 00:17:24;;;;;;;6.65;4.55;;;;;;;12.26;37.48;96804.38;5044956;28;20072;-77
2021/05/02 00:19:49;;;;;;;6.18;4.50;;;;;;;12.29;37.27;96812.47;5044724;28;20124;-77
2021/05/02 00:22:19;;;;;;;5.95;4.60;;;;;;;12.09;37.37;96815.88;5027581;28;20029;-78
2021/05/02 00:24:47;;;;;;;7.18;5.50;;;;;;;11.86;37.81;96816.38;5010263;28;20045;-77
2021/05/02 00:27:13;;;;;;;6.68;5.10;;;;;;;12.00;37.93;96822.66;5028916;28;20029;-77
2021/05/02 00:29:41;;;;;;;6.20;5.45;;;;;;;11.66;38.63;96817.16;5030625;28;20504;-78
2021/05/02 00:32:07;;;;;;;7.60;5.85;;;;;;;11.85;38.72;96825.25;5003444;28;20025;-77
2021/05/02 00:34:35;;;;;;;6.93;5.22;;;;;;;11.91;38.01;96825.03;5029348;28;20021;-77
2021/05/02 00:37:02;;;;;;;7.60;5.43;;;;;;;11.72;38.71;96822.13;5027996;28;20072;-77
2021/05/02 00:39:29;;;;;;;7.50;6.03;;;;;;;11.66;38.62;96814.53;5028079;28;20102;-76
2021/05/02 00:41:58;;;;;;;6.80;5.60;;;;;;;11.70;38.63;96813.75;5028795;28;20385;-78
2021/05/02 00:44:37;;;;;;;7.43;5.65;;;;;;;11.70;38.26;96816.34;5029484;28;20033;-78
2021/05/02 00:47:24;;;;;;;5.85;5.03;;;;;;;11.67;38.60;96816.91;5028619;28;20079;-78
2021/05/02 00:50:21;;;;;;;5.68;5.07;;;;;;;11.62;38.64;96819.50;5012529;28;20040;-77
2021/05/02 00:52:47;;;;;;;6.20;5.55;;;;;;;11.89;38.95;96813.25;5004765;28;20049;-77
2021/05/02 00:55:18;;;;;;;6.57;5.20;;;;;;;11.92;38.74;96816.13;5028895;28;20048;-77
2021/05/02 00:57:50;;;;;;;7.28;4.85;;;;;;;11.83;38.63;96819.50;5010503;28;20416;-77
2021/05/02 01:00:18;;;;;;;6.65;4.88;;;;;;;11.70;38.68;96818.19;5024888;28;20030;-77
2021/05/02 01:02:45;;;;;;;8.15;4.80;;;;;;;11.74;38.75;96820.03;5041897;28;20029;-77
2021/05/02 01:05:11;;;;;;;10.00;5.30;;;;;;;11.75;39.06;96821.56;5026876;28;20609;-77
2021/05/02 01:07:39;;;;;;;6.88;5.10;;;;;;;11.73;38.78;96822.88;5028017;28;20392;-77
2021/05/02 01:10:12;;;;;;;5.38;4.75;;;;;;;11.71;39.72;96819.75;5043774;28;20041;-77
2021/05/02 01:12:43;;;;;;;6.47;5.32;;;;;;;11.58;39.72;96827.06;5028430;28;20074;-77
2021/05/02 01:15:11;;;;;;;6.47;4.30;;;;;;;11.70;38.94;96826.00;5011635;28;20481;-77
2021/05/02 01:17:41;;;;;;;5.47;4.50;;;;;;;11.71;38.37;96828.38;5045185;28;20320;-77
2021/05/02 01:20:07;;;;;;;6.38;4.43;;;;;;;11.83;38.32;96822.91;5028435;28;20040;-77
2021/05/02 01:22:37;;;;;;;5.50;4.22;;;;;;;11.76;38.29;96832.81;5027012;28;20045;-77
2021/05/02 01:25:03;;;;;;;6.53;4.57;;;;;;;11.87;38.36;96834.38;5027948;28;20108;-77
2021/05/02 01:27:31;;;;;;;5.70;4.43;;;;;;;11.85;38.25;96838.28;5028097;28;20029;-77
2021/05/02 01:29:57;;;;;;;6.20;4.75;;;;;;;11.87;38.24;96831.75;5029549;28;20041;-77
2021/05/02 01:32:25;;;;;;;6.57;4.65;;;;;;;11.87;38.43;96833.59;5029050;28;20029;-77
2021/05/02 01:34:51;;;;;;;5.70;4.28;;;;;;;11.81;38.66;96836.19;5045190;28;20030;-78
2021/05/02 01:37:16;;;;;;;7.43;4.22;;;;;;;11.84;38.66;96845.34;5028164;28;20088;-77
2021/05/02 01:39:42;;;;;;;5.88;4.60;;;;;;;11.84;38.27;96849.75;5012053;28;20407;-77
2021/05/02 01:42:08;;;;;;;8.18;4.95;;;;;;;11.83;38.51;96848.22;5029332;28;20037;-77
2021/05/02 01:44:36;;;;;;;6.22;4.90;;;;;;;11.61;38.98;96846.59;5028029;28;20034;-77
2021/05/02 01:47:06;;;;;;;6.57;4.85;;;;;;;11.54;39.42;96852.06;5011525;28;20061;-78
2021/05/02 01:49:32;;;;;;;6.15;4.95;;;;;;;11.64;39.31;96853.16;5029312;28;20034;-77
2021/05/02 01:51:58;;;;;;;5.72;4.78;;;;;;;11.67;39.10;96856.00;5011889;28;20080;-77
2021/05/02 01:54:23;;;;;;;6.82;4.80;;;;;;;11.59;39.49;96856.53;5029557;28;20037;-78
2021/05/02 01:56:49;;;;;;;6.10;4.90;;;;;;;11.59;39.25;96846.88;5011308;28;20060;-77
2021/05/02 01:59:16;;;;;;;7.60;5.32;;;;;;;11.60;39.46;96855.47;5043781;28;20427;-77
2021/05/02 02:01:42;;;;;;;6.72;5.32;;;;;;;11.65;39.24;96858.06;5029539;28;20041;-77
2021/05/02 02:04:08;;;;;;;10.02;5.82;;;;;;;11.41;40.39;96861.19;5027861;28;20040;-77
2021/05/02 02:06:35;;;;;;;5.93;5.32;;;;;;;11.43;40.53;96866.91;5044020;28;20030;-77
2021/05/02 02:09:08;;;;;;;6.55;5.60;;;;;;;11.26;40.39;96855.91;5013086;28;20028;-77
2021/05/02 02:11:33;;;;;;;7.85;6.15;;;;;;;11.50;39.92;96865.88;5014612;28;20030;-77
2021/05/02 02:13:59;;;;;;;7.40;5.50;;;;;;;11.46;41.10;96867.44;5031584;28;20021;-77
2021/05/02 02:16:25;;;;;;;8.82;5.80;;;;;;;11.39;40.73;96867.66;5014523;28;20397;-77
2021/05/02 02:18:51;;;;;;;9.73;6.47;;;;;;;11.39;40.38;96871.06;5015250;28;20038;-77
2021/05/02 02:21:18;;;;;;;8.63;5.32;;;;;;;11.27;40.31;96869.72;5031226;28;20040;-77
2021/05/02 02:23:46;;;;;;;7.72;6.68;;;;;;;11.27;40.68;96872.34;5014700;28;20022;-77
2021/05/02 02:26:16;;;;;;;8.02;6.05;;;;;;;11.11;40.70;96871.50;5047070;28;20601;-77
2021/05/02 02:28:43;;;;;;;7.20;5.15;;;;;;;11.29;40.69;96880.69;5038003;28;20029;-77
2021/05/02 02:31:12;;;;;;;7.80;5.82;;;;;;;11.24;40.35;96874.41;5047346;28;20481;-77
2021/05/02 02:33:39;;;;;;;7.93;5.85;;;;;;;11.21;40.49;96884.56;5047101;28;20029;-77
2021/05/02 02:36:05;;;;;;;8.55;5.85;;;;;;;11.32;40.58;96883.56;5046851;28;20038;-77
2021/05/02 02:38:30;;;;;;;8.35;5.95;;;;;;;11.29;40.78;96885.88;5014042;28;20930;-77
2021/05/02 02:40:57;;;;;;;8.48;6.25;;;;;;;11.15;41.45;96885.56;5031147;28;20033;-77
2021/05/02 02:43:33;;;;;;;11.15;7.15;;;;;;;10.89;41.71;96893.28;5014526;28;20388;-77
2021/05/02 02:46:03;;;;;;;11.35;6.47;;;;;;;11.04;41.47;96892.56;5030122;28;20065;-77
2021/05/02 02:48:29;;;;;;;10.27;7.15;;;;;;;11.16;41.28;96890.53;5031037;28;20065;-78
2021/05/02 02:50:57;;;;;;;8.57;6.43;;;;;;;11.09;41.74;96892.59;5031223;28;20342;-77
2021/05/02 02:53:23;;;;;;;8.52;6.60;;;;;;;11.20;41.41;96893.41;5031165;28;20041;-77
2021/05/02 02:56:03;;;;;;;9.57;7.50;;;;;;;10.85;41.97;96892.22;5014758;28;20078;-77
2021/05/02 02:58:57;;;;;;;11.93;7.47;;;;;;;10.73;42.38;96902.03;5030972;28;20037;-77
2021/05/02 03:01:23;;;;;;;11.23;7.38;;;;;;;11.14;41.79;96895.22;5028128;28;20107;-77
2021/05/02 03:03:50;;;;;;;9.82;7.28;;;;;;;11.10;41.86;96901.19;5031726;28;20124;-77
2021/05/02 03:06:16;;;;;;;9.73;8.30;;;;;;;11.01;42.12;96896.47;5030123;28;20033;-77
2021/05/02 03:08:41;;;;;;;12.98;8.68;;;;;;;11.02;42.27;96902.47;5030696;28;20029;-77
2021/05/02 03:11:08;;;;;;;10.00;7.45;;;;;;;10.94;41.99;96906.31;5014380;28;20484;-77
2021/05/02 03:13:34;;;;;;;9.23;6.70;;;;;;;11.03;42.67;96911.84;5030196;28;20431;-77
2021/05/02 03:16:01;;;;;;;10.65;7.43;;;;;;;11.03;42.20;96910.00;5013819;28;20519;-77
2021/05/02 03:18:28;;;;;;;10.55;7.82;;;;;;;10.90;42.52;96909.69;5047115;28;20094;-77
2021/05/02 03:21:03;;;;;;;11.40;7.50;;;;;;;10.70;42.66;96907.75;5014050;28;20057;-78
2021/05/02 03:23:31;;;;;;;9.90;7.05;;;;;;;10.80;42.80;96915.63;5028695;28;20041;-78
2021/05/02 03:26:03;;;;;;;12.32;7.65;;;;;;;10.72;42.88;96911.66;5030206;28;20125;-77
2021/05/02 03:28:41;;;;;;;10.15;7.10;;;;;;;10.65;43.41;96922.31;5030508;28;20435;-77
2021/05/02 03:31:06;;;;;;;11.20;7.82;;;;;;;10.75;43.64;96926.03;5026756;28;20041;-77
2021/05/02 03:33:34;;;;;;;11.98;8.48;;;;;;;10.61;43.75;96917.88;5029883;28;20025;-77
2021/05/02 03:36:02;;;;;;;11.75;7.68;;;;;;;10.66;43.88;96921.28;5029139;28;20030;-76
2021/05/02 03:38:41;;;;;;;13.60;8.80;;;;;;;10.81;43.25;96928.41;5013471;28;20091;-77
2021/05/02 03:41:07;;;;;;;11.00;8.27;;;;;;;10.71;43.80;96932.75;5047123;28;20525;-77
2021/05/02 03:43:32;;;;;;;11.45;8.77;;;;;;;10.60;44.34;96922.25;5009724;28;20030;-77
2021/05/02 03:45:57;;;;;;;10.70;8.05;;;;;;;10.71;44.33;96927.53;5043131;28;20524;-77
2021/05/02 03:48:23;;;;;;;11.90;8.98;;;;;;;10.60;44.53;96932.69;5013028;28;20059;-76
2021/05/02 03:50:48;;;;;;;12.07;8.90;;;;;;;10.58;44.12;96939.97;5029651;28;20029;-77
2021/05/02 03:53:13;;;;;;;11.88;9.07;;;;;;;10.61;44.25;96936.09;5030170;28;20116;-77
2021/05/02 03:55:43;;;;;;;14.38;9.77;;;;;;;10.57;44.43;96940.97;5045558;28;20033;-77
2021/05/02 03:58:14;;;;;;;11.25;8.95;;;;;;;10.38;44.40;96939.81;5029633;28;20044;-77
2021/05/02 04:00:41;;;;;;;13.43;10.27;;;;;;;10.59;44.42;96945.94;5029229;28;20049;-78
2021/05/02 04:03:06;;;;;;;12.80;9.93;;;;;;;10.65;44.30;96950.94;4996744;28;20568;-78
2021/05/02 04:05:32;;;;;;;12.75;9.82;;;;;;;10.60;44.06;96953.50;5012886;28;20029;-77
2021/05/02 04:07:57;;;;;;;17.70;9.77;;;;;;;10.51;44.74;96949.03;5012939;28;20380;-78
2021/05/02 04:10:23;;;;;;;15.95;10.02;;;;;;;10.51;44.83;96949.03;5029623;28;20472;-77
2021/05/02 04:12:49;;;;;;;13.45;9.35;;;;;;;10.46;44.67;96950.53;5028529;28;20273;-78
2021/05/02 04:15:15;;;;;;;15.15;9.30;;;;;;;10.49;44.89;96954.47;5029215;28;20101;-78
2021/05/02 04:17:40;;;;;;;14.80;11.48;;;;;;;10.52;44.81;96966.19;5029195;28;20103;-77
2021/05/02 04:20:07;;;;;;;12.98;9.75;;;;;;;10.47;44.81;96967.75;5029287;28;20029;-77
2021/05/02 04:22:32;;;;;;;13.65;10.27;;;;;;;10.47;44.88;96972.94;5028954;28;20029;-77
2021/05/02 04:24:58;;;;;;;14.68;10.27;;;;;;;10.44;45.27;96972.66;5012214;28;20113;-77
2021/05/02 04:27:23;;;;;;;14.10;9.80;;;;;;;10.36;45.03;96976.50;5044883;28;20064;-77
2021/05/02 04:29:49;;;;;;;13.82;10.35;;;;;;;10.32;45.45;96987.66;5028584;28;20065;-77
2021/05/02 04:32:14;;;;;;;15.88;10.18;;;;;;;10.33;45.47;96992.59;5005013;28;20029;-77
2021/05/02 04:34:39;;;;;;;15.10;10.32;;;;;;;10.28;45.64;96992.53;5012094;28;20026;-77
2021/05/02 04:37:07;;;;;;;12.40;9.82;;;;;;;10.29;45.54;96991.50;5012560;28;20036;-77
2021/05/02 04:39:33;;;;;;;14.95;10.75;;;;;;;10.34;45.47;96985.59;5029420;28;20061;-77
2021/05/02 04:41:58;;;;;;;13.57;10.13;;;;;;;10.29;45.49;96996.69;5045469;28;20172;-77
2021/05/02 04:44:25;;;;;;;13.43;10.23;;;;;;;10.31;45.65;97002.44;5045572;28;20040;-77
2021/05/02 04:46:51;;;;;;;15.35;10.57;;;;;;;10.24;45.90;97007.84;5012211;28;20040;-77
2021/05/02 04:49:16;;;;;;;15.65;10.68;;;;;;;10.24;46.05;97013.03;5028649;28;20041;-77
2021/05/02 04:51:42;;;;;;;14.18;10.23;;;;;;;10.27;45.83;97012.56;5045046;28;20041;-77
2021/05/02 04:54:09;;;;;;;14.57;9.77;;;;;;;10.29;45.93;97015.69;5029318;28;20497;-77
2021/05/02 04:56:35;;;;;;;15.00;10.98;;;;;;;10.39;45.53;97016.88;4995196;28;20036;-77
2021/05/02 04:59:01;;;;;;;14.75;11.23;;;;;;;10.47;45.76;97032.03;5011673;28;20043;-77
2021/05/02 05:01:27;;;;;;;15.18;11.23;;;;;;;10.52;45.30;97019.06;5027681;28;20046;-77
2021/05/02 05:03:57;;;;;;;16.45;9.98;;;;;;;10.44;45.20;97028.09;5027375;28;20071;-77
2021/05/02 05:06:23;;;;;;;16.25;11.30;;;;;;;10.41;46.02;97025.97;5027380;28;20483;-77
2021/05/02 05:08:49;;;;;;;14.35;10.15;;;;;;;10.54;45.37;97032.63;5026963;28;20069;-77
2021/05/02 05:11:14;;;;;;;12.30;9.63;;;;;;;10.53;45.45;97038.06;5027262;28;20057;-77
2021/05/02 05:13:40;;;;;;;14.52;9.77;;;;;;;10.67;45.41;97037.41;5010661;28;20030;-77
2021/05/02 05:16:05;;;;;;;13.85;10.13;;;;;;;10.66;45.16;97040.28;5026960;28;20041;-77
2021/05/02 05:18:30;;;;;;;12.57;9.23;;;;;;;10.64;45.06;97040.53;5027284;28;20021;-77
2021/05/02 05:20:57;;;;;;;12.93;9.32;;;;;;;10.72;44.91;97038.50;5027877;28;20063;-77
2021/05/02 05:23:23;;;;;;;13.00;8.75;;;;;;;10.67;45.11;97047.81;5024202;28;20553;-77
2021/05/02 05:25:49;;;;;;;13.00;10.07;;;;;;;10.62;45.18;97054.81;5029427;28;20095;-77
2021/05/02 05:28:14;;;;;;;14.10;9.35;;;;;;;10.70;44.79;97056.97;5028106;28;20057;-77
2021/05/02 05:30:40;;;;;;;11.52;9.32;;;;;;;10.68;45.18;97051.22;5012020;28;20051;-77
2021/05/02 05:33:07;;;;;;;12.38;8.95;;;;;;;10.64;45.14;97058.75;5028336;28;20036;-77
2021/05/02 05:35:33;;;;;;;15.25;8.77;;;;;;;10.71;45.35;97062.94;5027548;28;20041;-77
2021/05/02 05:37:59;;;;;;;12.57;10.20;;;;;;;10.76;46.82;97063.00;5044822;28;20033;-77
2021/05/02 05:40:25;;;;;;;11.93;8.70;;;;;;;10.84;45.52;97067.75;5012386;28;20112;-77
2021/05/02 05:42:51;;;;;;;11.55;8.85;;;;;;;10.97;45.22;97069.94;5018133;28;20532;-77
2021/05/02 05:45:19;;;;;;;12.38;9.68;;;;;;;10.96;45.53;97068.38;5032322;28;20109;-77
2021/05/02 05:47:45;;;;;;;11.90;9.45;;;;;;;10.98;45.05;97063.69;5032006;28;20034;-77
2021/05/02 05:50:14;;;;;;;11.90;8.30;;;;;;;11.18;44.53;97072.69;5048849;28;20075;-77
2021/05/02 05:52:41;;;;;;;13.13;9.77;;;;;;;11.24;45.17;97071.69;5031973;28;20496;-77
2021/05/02 05:55:07;;;;;;;12.77;9.70;;;;;;;11.28;44.56;97069.38;5031876;28;20358;-78
2021/05/02 05:57:32;;;;;;;12.82;9.02;;;;;;;11.58;43.53;97072.19;5033624;28;20755;-78
2021/05/02 05:59:58;;;;;;;15.18;9.98;;;;;;;11.55;43.69;97083.09;4999436;28;20128;-77
2021/05/02 06:02:23;;;;;;;14.38;10.02;;;;;;;11.73;43.06;97079.28;5032183;28;20029;-77
2021/05/02 06:04:48;;;;;;;11.30;9.32;;;;;;;11.65;42.81;97073.75;5011621;28;20116;-77
2021/05/02 06:07:14;;;;;;;12.32;8.90;;;;;;;11.78;43.39;97079.28;5030731;28;20033;-77
2021/05/02 06:09:39;;;;;;;12.35;9.77;;;;;;;11.98;43.15;97085.69;5015753;28;20055;-77
2021/05/02 06:12:05;;;;;;;13.50;9.50;;;;;;;11.90;43.78;97088.75;5033859;28;20112;-78
2021/05/02 06:14:30;;;;;;;15.98;10.73;;;;;;;11.77;43.98;97088.19;5015872;28;20033;-78
2021/05/02 06:16:56;;;;;;;11.98;9.73;;;;;;;12.03;43.04;97092.72;5016022;28;20026;-77
2021/05/02 06:19:21;;;;;;;14.77;11.35;;;;;;;12.00;43.47;97091.44;5032966;28;20021;-79
2021/05/02 06:21:46;;;;;;;14.10;10.77;;;;;;;11.99;43.77;97088.03;5032266;28;20509;-78
2021/05/02 06:24:12;;;;;;;15.00;10.43;;;;;;;12.29;42.63;97101.44;5031633;28;20044;-77
2021/05/02 06:26:37;;;;;;;11.55;10.27;;;;;;;12.32;42.44;97096.50;5039976;28;20069;-79
2021/05/02 06:29:03;;;;;;;14.35;9.82;;;;;;;12.43;41.90;97092.06;5033783;28;20342;-78
2021/05/02 06:31:28;;;;;;;14.68;9.48;;;;;;;12.63;42.86;97098.38;5015486;28;20374;-78
2021/05/02 06:33:54;;;;;;;13.38;9.15;;;;;;;13.03;40.93;97095.00;5031537;28;20032;-77
2021/05/02 06:36:19;;;;;;;11.35;9.27;;;;;;;13.16;39.94;97098.13;5013977;28;20481;-77
2021/05/02 06:38:44;;;;;;;12.38;10.00;;;;;;;13.11;40.33;97107.56;5030524;28;20032;-77
2021/05/02 06:41:10;;;;;;;11.77;9.77;;;;;;;13.34;40.05;97115.16;5016144;28;20072;-77
2021/05/02 06:43:35;;;;;;;11.27;9.18;;;;;;;13.26;40.70;97104.16;5015053;28;20037;-78
2021/05/02 06:46:01;;;;;;;12.82;10.07;;;;;;;13.45;40.11;97108.84;5031625;28;20410;-77
2021/05/02 06:48:26;;;;;;;10.65;9.07;;;;;;;13.75;39.45;97115.09;5014730;28;20029;-78
2021/05/02 06:50:52;;;;;;;12.05;9.43;;;;;;;13.72;39.69;97126.09;5032662;28;20029;-77
2021/05/02 06:53:18;;;;;;;11.90;9.00;;;;;;;13.72;39.64;97126.09;5014812;28;20026;-77
2021/05/02 06:55:43;;;;;;;11.13;8.85;;;;;;;13.47;40.60;97117.25;5033135;28;20041;-77
2021/05/02 06:58:10;;;;;;;12.93;9.40;;;;;;;13.30;41.26;97125.34;5015660;28;20026;-78
2021/05/02 07:00:37;;;;;;;12.70;9.40;;;;;;;13.61;40.79;97128.72;5032294;28;20037;-77
2021/05/02 07:03:07;;;;;;;10.93;8.93;;;;;;;14.10;39.18;97126.50;5015426;28;20519;-77
2021/05/02 07:05:33;;;;;;;11.38;8.55;;;;;;;14.27;38.65;97129.56;5031116;28;20476;-78
2021/05/02 07:07:58;;;;;;;12.98;10.40;;;;;;;14.39;38.52;97119.56;5014517;28;20060;-77
2021/05/02 07:10:24;;;;;;;9.82;8.48;;;;;;;14.36;38.68;97124.53;5014931;28;20115;-78
2021/05/02 07:12:49;;;;;;;12.68;9.30;;;;;;;14.05;38.76;97133.31;5032189;28;20033;-77
2021/05/02 07:15:15;;;;;;;12.93;10.43;;;;;;;14.31;38.13;97132.41;5048061;28;20544;-78
2021/05/02 07:17:41;;;;;;;12.07;10.07;;;;;;;14.41;38.03;97138.41;5031860;28;20029;-78
2021/05/02 07:20:10;;;;;;;12.48;10.65;;;;;;;14.23;39.32;97129.31;5031269;28;20069;-78
2021/05/02 07:22:36;;;;;;;12.15;9.00;;;;;;;14.57;37.81;97130.47;5031467;28;20034;-78
2021/05/02 07:25:02;;;;;;;12.93;10.77;;;;;;;14.49;38.27;97134.44;5031175;28;20111;-78
2021/05/02 07:27:27;;;;;;;11.80;10.35;;;;;;;14.61;36.95;97131.50;5035345;28;20558;-77
2021/05/02 07:29:53;;;;;;;12.95;10.35;;;;;;;14.92;37.15;97131.31;5031230;28;20068;-77
2021/05/02 07:32:18;;;;;;;13.90;10.23;;;;;;;15.12;36.93;97131.16;5050724;28;20033;-77
2021/05/02 07:34:44;;;;;;;14.10;10.27;;;;;;;14.77;38.95;97140.06;4997459;28;20079;-78
2021/05/02 07:37:10;;;;;;;11.52;10.00;;;;;;;14.39;38.88;97137.91;4999656;28;20030;-77
2021/05/02 07:39:36;;;;;;;11.93;9.38;;;;;;;14.83;38.02;97146.06;5015283;28;20065;-78
2021/05/02 07:42:01;;;;;;;10.68;9.05;;;;;;;15.21;36.82;97144.47;5025844;28;20061;-77
2021/05/02 07:44:26;;;;;;;11.85;9.70;;;;;;;15.34;36.61;97140.44;5013624;28;20548;-77
2021/05/02 07:46:52;;;;;;;10.23;8.75;;;;;;;15.44;36.46;97142.97;5030743;28;20056;-77
2021/05/02 07:49:17;;;;;;;14.57;10.30;;;;;;;15.03;37.86;97143.31;5049588;28;20505;-78
2021/05/02 07:51:42;;;;;;;12.73;10.05;;;;;;;15.20;38.89;97144.75;5047471;28;20083;-78
2021/05/02 07:54:08;;;;;;;10.80;9.52;;;;;;;15.30;37.50;97142.03;5031902;28;20481;-78
2021/05/02 07:56:33;;;;;;;12.18;9.75;;;;;;;15.31;37.66;97149.63;5031554;28;20036;-79
2021/05/02 07:58:59;;;;;;;10.65;8.45;;;;;;;15.55;35.80;97154.16;5014754;28;20033;-78
2021/05/02 08:01:24;;;;;;;11.52;9.95;;;;;;;15.60;36.24;97151.50;5030280;28;20037;-77
2021/05/02 08:03:50;;;;;;;11.75;9.63;;;;;;;15.63;34.92;97155.41;5029491;28;20484;-77
2021/05/02 08:06:15;;;;;;;10.00;8.60;;;;;;;15.71;34.77;97160.03;5011563;28;20029;-77
2021/05/02 08:08:40;;;;;;;11.48;8.65;;;;;;;16.01;34.46;97158.22;5029554;28;20477;-78
2021/05/02 08:11:06;;;;;;;15.20;8.18;;;;;;;15.87;34.37;97160.72;5030558;28;20516;-78
2021/05/02 08:13:31;;;;;;;11.30;8.65;;;;;;;15.73;33.67;97171.06;5047454;28;20037;-77
2021/05/02 08:15:56;;;;;;;9.63;8.63;;;;;;;15.52;35.04;97173.06;5013763;28;20044;-77
2021/05/02 08:18:22;;;;;;;10.32;8.50;;;;;;;15.68;34.17;97176.38;5029396;28;20099;-77
2021/05/02 08:20:47;;;;;;;11.45;9.32;;;;;;;15.65;33.58;97167.19;5046150;28;20059;-77
2021/05/02 08:23:13;;;;;;;11.32;9.50;;;;;;;15.14;35.55;97163.13;5030714;28;20033;-78
2021/05/02 08:25:38;;;;;;;11.43;9.35;;;;;;;15.59;34.69;97173.53;5013470;28;20048;-78
2021/05/02 08:28:04;;;;;;;11.68;9.93;;;;;;;15.87;34.18;97172.00;5029491;28;20524;-77
2021/05/02 08:30:30;;;;;;;11.80;9.23;;;;;;;15.87;33.45;97166.75;5027938;28;20026;-76
2021/05/02 08:32:55;;;;;;;11.50;9.30;;;;;;;15.66;33.87;97176.63;5011227;28;20497;-76
2021/05/02 08:35:23;;;;;;;12.18;9.65;;;;;;;15.70;34.23;97175.00;5044979;28;20040;-77
2021/05/02 08:37:48;;;;;;;10.32;9.07;;;;;;;15.67;35.56;97177.41;5028614;28;20026;-77
2021/05/02 08:40:14;;;;;;;10.57;9.45;;;;;;;15.91;33.50;97177.47;5027745;28;20033;-78
2021/05/02 08:42:40;;;;;;;10.75;9.35;;;;;;;15.99;34.78;97171.63;5029611;28;20059;-78
2021/05/02 08:45:06;;;;;;;11.98;9.77;;;;;;;15.35;34.42;97176.09;4995021;28;20029;-77
2021/05/02 08:47:35;;;;;;;11.27;9.43;;;;;;;14.96;35.28;97182.94;5028983;28;20128;-77
2021/05/02 08:50:09;;;;;;;11.20;9.50;;;;;;;14.40;35.85;97188.44;5028131;28;20061;-77
2021/05/02 08:52:35;;;;;;;13.20;10.32;;;;;;;14.21;37.59;97189.03;5008674;28;20478;-76
2021/05/02 08:55:01;;;;;;;13.93;10.13;;;;;;;14.48;37.94;97174.00;5029364;28;20026;-77
2021/05/02 08:57:30;;;;;;;12.23;9.98;;;;;;;15.13;35.15;97181.78;5029375;28;20488;-77
2021/05/02 08:59:55;;;;;;;11.57;9.00;;;;;;;15.32;36.05;97179.28;4992708;28;20029;-77
2021/05/02 09:02:25;;;;;;;12.95;9.77;;;;;;;15.03;34.41;97187.88;5042667;28;20385;-78
2021/05/02 09:04:52;;;;;;;11.05;9.63;;;;;;;14.81;34.48;97179.66;5007908;28;20385;-77
2021/05/02 09:07:17;;;;;;;11.75;9.35;;;;;;;14.38;36.57;97186.09;5025397;28;20540;-77
2021/05/02 09:09:43;;;;;;;11.57;9.52;;;;;;;14.16;35.83;97191.66;5011252;28;20056;-77
2021/05/02 09:12:18;;;;;;;10.18;9.18;;;;;;;13.79;35.71;97195.41;5018296;28;20527;-77
2021/05/02 09:14:44;;;;;;;13.27;10.68;;;;;;;13.67;36.02;97182.63;5025302;28;20033;-76
2021/05/02 09:17:15;;;;;;;13.77;10.77;;;;;;;13.80;35.87;97191.75;5006802;28;20033;-76
2021/05/02 09:19:49;;;;;;;14.30;11.32;;;;;;;13.39;36.96;97191.00;5029773;28;20104;-77
2021/05/02 09:22:15;;;;;;;13.70;9.93;;;;;;;13.81;36.41;97188.09;5029226;28;20040;-77
2021/05/02 09:24:41;;;;;;;12.75;9.52;;;;;;;13.96;36.62;97194.34;5010112;28;20108;-77
2021/05/02 09:27:08;;;;;;;10.75;9.13;;;;;;;14.25;35.78;97191.91;5014979;28;20036;-77
2021/05/02 09:29:34;;;;;;;10.45;8.57;;;;;;;14.48;34.69;97198.38;5014249;28;20386;-77
2021/05/02 09:32:00;;;;;;;10.20;7.95;;;;;;;14.29;35.64;97190.34;5034517;28;20069;-77
2021/05/02 09:34:26;;;;;;;8.25;6.68;;;;;;;13.79;34.53;97197.25;5029698;28;20536;-77
2021/05/02 09:36:51;;;;;;;8.30;7.25;;;;;;;13.84;33.94;97200.63;5030022;28;20029;-78
2021/05/02 09:39:40;;;;;;;8.55;6.50;;;;;;;13.74;35.58;97198.03;5031683;28;20115;-77
2021/05/02 09:42:35;;;;;;;6.95;6.35;;;;;;;14.83;34.25;97190.63;5022841;28;20491;-77
2021/05/02 09:45:05;;;;;;;5.15;4.65;;;;;;;16.12;29.52;97185.13;4997427;28;20465;-77
2021/05/02 09:47:34;;;;;;;6.15;5.30;;;;;;;16.45;28.83;97184.22;5030136;28;20103;-76
2021/05/02 09:50:09;;;;;;;5.43;3.92;;;;;;;15.74;28.65;97183.88;5013049;28;20030;-77
2021/05/02 09:52:53;;;;;;;5.03;4.30;;;;;;;15.00;29.24;97196.28;5029824;28;20104;-77
2021/05/02 09:55:22;;;;;;;4.70;3.75;;;;;;;14.96;29.57;97201.28;5044809;28;20029;-78
2021/05/02 09:58:08;;;;;;;4.68;3.97;;;;;;;14.79;29.42;97199.03;5030463;28;20108;-76
2021/05/02 10:00:45;;;;;;;5.72;4.80;;;;;;;14.15;31.55;97207.63;5047489;28;20049;-77
2021/05/02 10:03:18;;;;;;;4.65;4.15;;;;;;;14.30;31.77;97201.59;5028696;28;20097;-76
2021/05/02 10:06:06;;;;;;;5.03;3.83;;;;;;;13.89;31.18;97202.47;5045418;28;20104;-76
2021/05/02 10:08:36;;;;;;;4.85;3.53;;;;;;;14.27;30.08;97205.50;5024404;28;20036;-77
2021/05/02 10:11:07;;;;;;;3.95;3.10;;;;;;;14.50;31.37;97200.72;5032007;28;20495;-77
2021/05/02 10:13:32;;;;;;;6.05;3.47;;;;;;;14.91;29.67;97200.56;5029259;28;20122;-77
2021/05/02 10:15:58;;;;;;;3.85;3.42;;;;;;;15.77;29.03;97203.59;5029202;28;20464;-77
2021/05/02 10:18:24;;;;;;;3.10;2.65;;;;;;;15.92;29.46;97202.69;5030832;28;20036;-77
2021/05/02 10:20:50;;;;;;;3.72;2.70;;;;;;;15.99;28.88;97205.75;4996150;28;20025;-78
2021/05/02 10:23:16;;;;;;;3.53;2.75;;;;;;;15.59;27.30;97205.03;5013870;28;20034;-77
2021/05/02 10:25:42;;;;;;;3.13;2.80;;;;;;;15.70;27.98;97213.63;5024975;28;20051;-77
2021/05/02 10:28:08;;;;;;;3.30;2.55;;;;;;;15.29;29.60;97208.69;4997563;28;20060;-78
2021/05/02 10:30:39;;;;;;;2.92;1.85;;;;;;;15.14;28.77;97212.19;5012807;28;20103;-77
2021/05/02 10:33:14;;;;;;;2.53;2.17;;;;;;;15.01;30.02;97213.59;5014228;28;20041;-76
2021/05/02 10:35:46;;;;;;;3.45;2.30;;;;;;;15.60;29.58;97211.06;5012975;28;20377;-77
2021/05/02 10:38:14;;;;;;;2.60;1.92;;;;;;;15.98;26.60;97208.66;5028571;28;20554;-77
2021/05/02 10:40:39;;;;;;;2.75;2.45;;;;;;;16.03;26.72;97216.47;5012578;28;20384;-76
2021/05/02 10:43:10;;;;;;;2.70;2.00;;;;;;;16.04;26.56;97212.78;5027887;28;20033;-76
2021/05/02 10:45:43;;;;;;;2.67;1.80;;;;;;;16.68;25.56;97205.50;5045515;28;20315;-77
2021/05/02 10:48:22;;;;;;;2.35;2.15;;;;;;;16.85;25.57;97202.41;5044397;28;20481;-77
2021/05/02 10:50:51;;;;;;;1.88;1.63;;;;;;;17.59;25.23;97201.81;5013183;28;20035;-77
2021/05/02 10:53:25;;;;;;;2.08;1.73;;;;;;;17.27;24.88;97200.72;5010657;28;20067;-76
2021/05/02 10:56:05;;;;;;;3.17;1.85;;;;;;;16.80;25.44;97205.84;5027790;28;20037;-76
2021/05/02 10:58:31;;;;;;;2.42;1.90;;;;;;;16.66;25.28;97216.28;5011551;28;20041;-77
2021/05/02 11:01:03;;;;;;;2.22;1.73;;;;;;;15.46;27.59;97216.94;5028435;28;20034;-77
2021/05/02 11:06:10;;;;;;;3.03;1.88;;;;;;;14.97;28.27;97230.91;5028255;28;20488;-77
2021/05/02 11:08:51;;;;;;;2.75;1.90;;;;;;;15.00;27.74;97226.97;5011746;28;20517;-76
2021/05/02 11:14:07;;;;;;;2.47;2.03;;;;;;;15.37;27.47;97229.09;5028269;28;20038;-77
2021/05/02 11:16:32;;;;;;;1.92;1.73;;;;;;;15.86;27.37;97222.94;5028826;28;20246;-78
2021/05/02 11:18:58;;;;;;;2.40;1.85;;;;;;;16.58;27.34;97219.53;5029252;28;20041;-77
2021/05/02 11:21:27;;;;;;;1.58;1.48;;;;;;;16.18;26.71;97229.47;5005479;28;20034;-76
2021/05/02 11:24:00;;;;;;;1.80;1.48;;;;;;;16.43;25.57;97231.03;5011216;28;20485;-77
2021/05/02 11:27:00;;;;;;;2.67;1.83;;;;;;;16.12;25.48;97238.44;5008271;28;20033;-76
2021/05/02 11:29:31;;;;;;;1.85;1.65;;;;;;;16.29;27.93;97224.88;5029734;28;20381;-78
2021/05/02 11:31:57;;;;;;;2.35;2.00;;;;;;;16.93;26.20;97217.56;5015273;28;20025;-77
2021/05/02 11:34:23;;;;;;;2.50;1.83;;;;;;;17.22;26.42;97219.22;5032286;28;20027;-77